Terminal Aerodrome Forecast
Issued by NWS

Home | Current Version | Previous Version | Graphics & Text | Print | Product List | Glossary On
Versions: 1 2 3 4 5 6 7 8 9 10 11 12 13
871
FTUS43 KBIS 202331
TAFJMS
TAF
KJMS 202331Z 2100/2124 16014KT P6SM BKN100 BKN250
     FM210600 15006KT P6SM VCTS SCT090CB BKN200=

USA.gov is the U.S. government's official web portal to all federal, state and local government web resources and services.